sensor_id;sensor_type;location;lat;lon;timestamp;P1;durP1;ratioP1;P2;durP2;ratioP2
12332;SDS011;6232;48.094;11.288;2023-04-24T00:02:03;1.90;;;1.70;;
12332;SDS011;6232;48.094;11.288;2023-04-24T00:04:48;4.50;;;2.23;;
12332;SDS011;6232;48.094;11.288;2023-04-24T00:07:34;2.00;;;1.90;;
12332;SDS011;6232;48.094;11.288;2023-04-24T00:10:20;2.13;;;1.50;;
12332;SDS011;6232;48.094;11.288;2023-04-24T00:13:05;1.90;;;1.80;;
12332;SDS011;6232;48.094;11.288;2023-04-24T00:15:51;2.60;;;1.60;;
12332;SDS011;6232;48.094;11.288;2023-04-24T00:18:37;1.67;;;1.57;;
12332;SDS011;6232;48.094;11.288;2023-04-24T00:21:22;1.90;;;1.80;;
12332;SDS011;6232;48.094;11.288;2023-04-24T00:24:10;1.80;;;1.70;;
12332;SDS011;6232;48.094;11.288;2023-04-24T00:26:56;1.80;;;1.70;;
12332;SDS011;6232;48.094;11.288;2023-04-24T00:29:42;1.33;;;1.23;;
12332;SDS011;6232;48.094;11.288;2023-04-24T00:32:27;1.70;;;1.60;;
12332;SDS011;6232;48.094;11.288;2023-04-24T00:35:13;1.63;;;1.53;;
12332;SDS011;6232;48.094;11.288;2023-04-24T00:37:59;1.67;;;1.57;;
12332;SDS011;6232;48.094;11.288;2023-04-24T00:40:45;4.23;;;1.53;;
12332;SDS011;6232;48.094;11.288;2023-04-24T00:43:31;1.30;;;1.20;;
12332;SDS011;6232;48.094;11.288;2023-04-24T00:46:16;1.33;;;1.23;;
12332;SDS011;6232;48.094;11.288;2023-04-24T00:49:02;1.40;;;1.37;;
12332;SDS011;6232;48.094;11.288;2023-04-24T00:51:47;3.03;;;1.53;;
12332;SDS011;6232;48.094;11.288;2023-04-24T00:54:34;1.40;;;1.30;;
12332;SDS011;6232;48.094;11.288;2023-04-24T00:57:20;1.43;;;1.30;;
12332;SDS011;6232;48.094;11.288;2023-04-24T01:00:07;1.50;;;1.40;;
12332;SDS011;6232;48.094;11.288;2023-04-24T01:02:57;1.17;;;1.17;;
12332;SDS011;6232;48.094;11.288;2023-04-24T01:05:44;1.43;;;1.33;;
12332;SDS011;6232;48.094;11.288;2023-04-24T01:08:29;1.50;;;1.40;;
12332;SDS011;6232;48.094;11.288;2023-04-24T01:11:15;1.50;;;1.40;;
12332;SDS011;6232;48.094;11.288;2023-04-24T01:14:01;1.33;;;1.23;;
12332;SDS011;6232;48.094;11.288;2023-04-24T01:16:46;1.83;;;1.30;;
12332;SDS011;6232;48.094;11.288;2023-04-24T01:19:32;1.33;;;1.23;;
12332;SDS011;6232;48.094;11.288;2023-04-24T01:22:17;1.17;;;1.17;;
12332;SDS011;6232;48.094;11.288;2023-04-24T01:25:03;1.20;;;1.20;;
12332;SDS011;6232;48.094;11.288;2023-04-24T01:27:50;4.30;;;1.63;;
12332;SDS011;6232;48.094;11.288;2023-04-24T01:30:36;1.20;;;1.20;;
12332;SDS011;6232;48.094;11.288;2023-04-24T01:33:22;1.50;;;1.40;;
12332;SDS011;6232;48.094;11.288;2023-04-24T01:36:08;1.47;;;1.37;;
12332;SDS011;6232;48.094;11.288;2023-04-24T01:38:55;1.17;;;1.17;;
12332;SDS011;6232;48.094;11.288;2023-04-24T01:41:41;1.40;;;1.27;;
12332;SDS011;6232;48.094;11.288;2023-04-24T01:44:26;1.50;;;1.40;;
12332;SDS011;6232;48.094;11.288;2023-04-24T01:47:12;1.73;;;1.40;;
12332;SDS011;6232;48.094;11.288;2023-04-24T01:49:58;1.40;;;1.30;;
12332;SDS011;6232;48.094;11.288;2023-04-24T01:52:44;1.40;;;1.30;;
12332;SDS011;6232;48.094;11.288;2023-04-24T01:55:29;2.00;;;1.70;;
12332;SDS011;6232;48.094;11.288;2023-04-24T01:58:15;1.60;;;1.50;;
12332;SDS011;6232;48.094;11.288;2023-04-24T02:01:00;1.47;;;1.20;;
12332;SDS011;6232;48.094;11.288;2023-04-24T02:03:46;1.47;;;1.20;;
12332;SDS011;6232;48.094;11.288;2023-04-24T02:06:32;1.60;;;1.50;;
12332;SDS011;6232;48.094;11.288;2023-04-24T02:09:17;1.40;;;1.30;;
12332;SDS011;6232;48.094;11.288;2023-04-24T02:12:03;1.20;;;1.10;;
12332;SDS011;6232;48.094;11.288;2023-04-24T02:14:48;1.47;;;1.40;;
12332;SDS011;6232;48.094;11.288;2023-04-24T02:17:34;1.10;;;1.10;;
12332;SDS011;6232;48.094;11.288;2023-04-24T02:20:19;1.30;;;1.30;;
12332;SDS011;6232;48.094;11.288;2023-04-24T02:23:05;1.33;;;1.20;;
12332;SDS011;6232;48.094;11.288;2023-04-24T02:25:50;1.33;;;1.23;;
12332;SDS011;6232;48.094;11.288;2023-04-24T02:28:38;1.30;;;1.30;;
12332;SDS011;6232;48.094;11.288;2023-04-24T02:31:24;1.30;;;1.23;;
12332;SDS011;6232;48.094;11.288;2023-04-24T02:34:09;2.30;;;1.40;;
12332;SDS011;6232;48.094;11.288;2023-04-24T02:36:55;1.60;;;1.50;;
12332;SDS011;6232;48.094;11.288;2023-04-24T02:39:41;1.50;;;1.40;;
12332;SDS011;6232;48.094;11.288;2023-04-24T02:42:26;1.27;;;1.17;;
12332;SDS011;6232;48.094;11.288;2023-04-24T02:45:12;2.20;;;1.30;;
12332;SDS011;6232;48.094;11.288;2023-04-24T02:47:57;2.70;;;1.53;;
12332;SDS011;6232;48.094;11.288;2023-04-24T02:50:43;1.70;;;1.60;;
12332;SDS011;6232;48.094;11.288;2023-04-24T02:53:29;1.70;;;1.60;;
12332;SDS011;6232;48.094;11.288;2023-04-24T02:56:15;1.37;;;1.27;;
12332;SDS011;6232;48.094;11.288;2023-04-24T02:59:01;2.50;;;1.60;;
12332;SDS011;6232;48.094;11.288;2023-04-24T03:01:46;1.40;;;1.20;;
12332;SDS011;6232;48.094;11.288;2023-04-24T03:04:32;1.50;;;1.40;;
12332;SDS011;6232;48.094;11.288;2023-04-24T03:07:17;1.93;;;1.40;;
12332;SDS011;6232;48.094;11.288;2023-04-24T03:10:06;1.50;;;1.40;;
12332;SDS011;6232;48.094;11.288;2023-04-24T03:12:52;2.30;;;1.70;;
12332;SDS011;6232;48.094;11.288;2023-04-24T03:15:37;1.57;;;1.47;;
12332;SDS011;6232;48.094;11.288;2023-04-24T03:18:23;1.60;;;1.50;;
12332;SDS011;6232;48.094;11.288;2023-04-24T03:21:08;1.40;;;1.30;;
12332;SDS011;6232;48.094;11.288;2023-04-24T03:23:54;1.57;;;1.47;;
12332;SDS011;6232;48.094;11.288;2023-04-24T03:26:40;1.60;;;1.50;;
12332;SDS011;6232;48.094;11.288;2023-04-24T03:29:25;1.20;;;1.20;;
12332;SDS011;6232;48.094;11.288;2023-04-24T03:32:11;1.60;;;1.50;;
12332;SDS011;6232;48.094;11.288;2023-04-24T03:34:56;1.60;;;1.50;;
12332;SDS011;6232;48.094;11.288;2023-04-24T03:37:42;1.50;;;1.40;;
12332;SDS011;6232;48.094;11.288;2023-04-24T03:40:27;1.47;;;1.37;;
12332;SDS011;6232;48.094;11.288;2023-04-24T03:43:14;4.07;;;1.90;;
12332;SDS011;6232;48.094;11.288;2023-04-24T03:46:00;2.00;;;1.90;;
12332;SDS011;6232;48.094;11.288;2023-04-24T03:48:45;1.70;;;1.60;;
12332;SDS011;6232;48.094;11.288;2023-04-24T03:51:31;1.80;;;1.70;;
12332;SDS011;6232;48.094;11.288;2023-04-24T03:54:17;2.97;;;1.77;;
12332;SDS011;6232;48.094;11.288;2023-04-24T03:57:03;1.77;;;1.50;;
12332;SDS011;6232;48.094;11.288;2023-04-24T03:59:49;1.17;;;1.13;;
12332;SDS011;6232;48.094;11.288;2023-04-24T04:02:35;1.87;;;1.50;;
12332;SDS011;6232;48.094;11.288;2023-04-24T04:05:21;2.13;;;1.77;;
12332;SDS011;6232;48.094;11.288;2023-04-24T04:08:07;1.60;;;1.50;;
12332;SDS011;6232;48.094;11.288;2023-04-24T04:10:53;1.63;;;1.30;;
12332;SDS011;6232;48.094;11.288;2023-04-24T04:13:38;3.67;;;1.80;;
12332;SDS011;6232;48.094;11.288;2023-04-24T04:16:24;2.10;;;1.73;;
12332;SDS011;6232;48.094;11.288;2023-04-24T04:19:09;1.63;;;1.53;;
12332;SDS011;6232;48.094;11.288;2023-04-24T04:21:55;1.60;;;1.50;;
12332;SDS011;6232;48.094;11.288;2023-04-24T04:24:41;1.60;;;1.50;;
12332;SDS011;6232;48.094;11.288;2023-04-24T04:27:27;1.83;;;1.73;;
12332;SDS011;6232;48.094;11.288;2023-04-24T04:30:13;1.50;;;1.40;;
12332;SDS011;6232;48.094;11.288;2023-04-24T04:32:59;1.47;;;1.37;;
12332;SDS011;6232;48.094;11.288;2023-04-24T04:35:45;1.50;;;1.40;;
12332;SDS011;6232;48.094;11.288;2023-04-24T04:38:34;2.93;;;1.50;;
12332;SDS011;6232;48.094;11.288;2023-04-24T04:41:20;2.23;;;1.70;;
12332;SDS011;6232;48.094;11.288;2023-04-24T04:44:05;1.50;;;1.40;;
12332;SDS011;6232;48.094;11.288;2023-04-24T04:46:51;1.60;;;1.50;;
12332;SDS011;6232;48.094;11.288;2023-04-24T04:49:38;1.60;;;1.50;;
12332;SDS011;6232;48.094;11.288;2023-04-24T04:52:24;1.20;;;1.20;;
12332;SDS011;6232;48.094;11.288;2023-04-24T04:55:11;1.63;;;1.53;;
12332;SDS011;6232;48.094;11.288;2023-04-24T04:57:58;1.90;;;1.50;;
12332;SDS011;6232;48.094;11.288;2023-04-24T05:00:45;1.70;;;1.60;;
12332;SDS011;6232;48.094;11.288;2023-04-24T05:03:31;1.50;;;1.40;;
12332;SDS011;6232;48.094;11.288;2023-04-24T05:06:17;1.53;;;1.43;;
12332;SDS011;6232;48.094;11.288;2023-04-24T05:09:02;2.10;;;1.37;;
12332;SDS011;6232;48.094;11.288;2023-04-24T05:11:48;1.60;;;1.50;;
12332;SDS011;6232;48.094;11.288;2023-04-24T05:14:34;1.50;;;1.40;;
12332;SDS011;6232;48.094;11.288;2023-04-24T05:17:19;2.03;;;1.43;;
12332;SDS011;6232;48.094;11.288;2023-04-24T05:20:05;1.83;;;1.40;;
12332;SDS011;6232;48.094;11.288;2023-04-24T05:22:51;1.93;;;1.30;;
12332;SDS011;6232;48.094;11.288;2023-04-24T05:25:37;3.13;;;1.73;;
12332;SDS011;6232;48.094;11.288;2023-04-24T05:28:24;1.83;;;1.47;;
12332;SDS011;6232;48.094;11.288;2023-04-24T05:31:13;1.33;;;1.23;;
12332;SDS011;6232;48.094;11.288;2023-04-24T05:33:59;1.37;;;1.30;;
12332;SDS011;6232;48.094;11.288;2023-04-24T05:36:44;1.10;;;1.10;;
12332;SDS011;6232;48.094;11.288;2023-04-24T05:39:30;1.23;;;1.13;;
12332;SDS011;6232;48.094;11.288;2023-04-24T05:42:15;1.63;;;1.10;;
12332;SDS011;6232;48.094;11.288;2023-04-24T05:45:01;1.30;;;1.20;;
12332;SDS011;6232;48.094;11.288;2023-04-24T05:47:46;1.67;;;1.57;;
12332;SDS011;6232;48.094;11.288;2023-04-24T05:50:32;1.50;;;1.40;;
12332;SDS011;6232;48.094;11.288;2023-04-24T05:53:18;1.07;;;1.00;;
12332;SDS011;6232;48.094;11.288;2023-04-24T05:56:04;0.90;;;0.90;;
12332;SDS011;6232;48.094;11.288;2023-04-24T05:58:49;0.90;;;0.90;;
12332;SDS011;6232;48.094;11.288;2023-04-24T06:01:35;1.27;;;0.97;;
12332;SDS011;6232;48.094;11.288;2023-04-24T06:04:21;2.20;;;1.10;;
12332;SDS011;6232;48.094;11.288;2023-04-24T06:07:06;1.30;;;1.20;;
12332;SDS011;6232;48.094;11.288;2023-04-24T06:09:52;1.20;;;1.10;;
12332;SDS011;6232;48.094;11.288;2023-04-24T06:12:38;1.10;;;1.10;;
12332;SDS011;6232;48.094;11.288;2023-04-24T06:15:23;1.67;;;1.43;;
12332;SDS011;6232;48.094;11.288;2023-04-24T06:18:09;1.53;;;1.30;;
12332;SDS011;6232;48.094;11.288;2023-04-24T06:20:55;0.90;;;0.90;;
12332;SDS011;6232;48.094;11.288;2023-04-24T06:23:41;1.40;;;1.30;;
12332;SDS011;6232;48.094;11.288;2023-04-24T06:26:27;1.53;;;1.43;;
12332;SDS011;6232;48.094;11.288;2023-04-24T06:29:12;1.10;;;1.00;;
12332;SDS011;6232;48.094;11.288;2023-04-24T06:31:58;1.30;;;1.20;;
12332;SDS011;6232;48.094;11.288;2023-04-24T06:34:43;2.40;;;1.23;;
12332;SDS011;6232;48.094;11.288;2023-04-24T06:37:29;1.17;;;1.10;;
12332;SDS011;6232;48.094;11.288;2023-04-24T06:40:14;1.20;;;1.10;;
12332;SDS011;6232;48.094;11.288;2023-04-24T06:43:00;1.10;;;1.10;;
12332;SDS011;6232;48.094;11.288;2023-04-24T06:45:47;1.00;;;1.00;;
12332;SDS011;6232;48.094;11.288;2023-04-24T06:48:33;1.00;;;1.00;;
12332;SDS011;6232;48.094;11.288;2023-04-24T06:51:19;1.30;;;1.20;;
12332;SDS011;6232;48.094;11.288;2023-04-24T06:54:04;2.37;;;1.23;;
12332;SDS011;6232;48.094;11.288;2023-04-24T06:56:50;3.27;;;1.10;;
12332;SDS011;6232;48.094;11.288;2023-04-24T06:59:37;1.50;;;1.10;;
12332;SDS011;6232;48.094;11.288;2023-04-24T07:02:22;1.13;;;1.03;;
12332;SDS011;6232;48.094;11.288;2023-04-24T07:05:08;1.17;;;1.00;;
12332;SDS011;6232;48.094;11.288;2023-04-24T07:07:53;1.73;;;1.03;;
12332;SDS011;6232;48.094;11.288;2023-04-24T07:10:39;2.10;;;1.03;;
12332;SDS011;6232;48.094;11.288;2023-04-24T07:13:24;1.00;;;1.00;;
12332;SDS011;6232;48.094;11.288;2023-04-24T07:16:10;1.10;;;1.00;;
12332;SDS011;6232;48.094;11.288;2023-04-24T07:18:56;0.90;;;0.90;;
12332;SDS011;6232;48.094;11.288;2023-04-24T07:21:41;1.07;;;1.07;;
12332;SDS011;6232;48.094;11.288;2023-04-24T07:24:27;1.10;;;1.00;;
12332;SDS011;6232;48.094;11.288;2023-04-24T07:27:12;1.00;;;1.00;;
12332;SDS011;6232;48.094;11.288;2023-04-24T07:30:00;3.03;;;1.10;;
12332;SDS011;6232;48.094;11.288;2023-04-24T07:32:45;1.23;;;1.13;;
12332;SDS011;6232;48.094;11.288;2023-04-24T07:35:31;2.10;;;1.00;;
12332;SDS011;6232;48.094;11.288;2023-04-24T07:38:18;1.10;;;1.00;;
12332;SDS011;6232;48.094;11.288;2023-04-24T07:41:06;1.57;;;1.47;;
12332;SDS011;6232;48.094;11.288;2023-04-24T07:43:52;1.00;;;0.90;;
12332;SDS011;6232;48.094;11.288;2023-04-24T07:46:38;1.10;;;1.10;;
12332;SDS011;6232;48.094;11.288;2023-04-24T07:49:25;1.40;;;1.30;;
12332;SDS011;6232;48.094;11.288;2023-04-24T07:52:10;1.17;;;1.07;;
12332;SDS011;6232;48.094;11.288;2023-04-24T07:54:56;1.07;;;0.97;;
12332;SDS011;6232;48.094;11.288;2023-04-24T07:57:45;1.20;;;1.10;;
12332;SDS011;6232;48.094;11.288;2023-04-24T08:00:31;2.63;;;0.90;;
12332;SDS011;6232;48.094;11.288;2023-04-24T08:03:16;1.30;;;1.00;;
12332;SDS011;6232;48.094;11.288;2023-04-24T08:06:04;1.03;;;0.97;;
12332;SDS011;6232;48.094;11.288;2023-04-24T08:08:50;0.90;;;0.90;;
12332;SDS011;6232;48.094;11.288;2023-04-24T08:11:36;0.93;;;0.93;;
12332;SDS011;6232;48.094;11.288;2023-04-24T08:14:22;3.27;;;1.10;;
12332;SDS011;6232;48.094;11.288;2023-04-24T08:17:07;1.00;;;1.00;;
12332;SDS011;6232;48.094;11.288;2023-04-24T08:19:53;1.80;;;1.43;;
12332;SDS011;6232;48.094;11.288;2023-04-24T08:22:46;4.20;;;1.40;;
12332;SDS011;6232;48.094;11.288;2023-04-24T08:25:34;7.30;;;2.10;;
12332;SDS011;6232;48.094;11.288;2023-04-24T08:28:20;2.87;;;1.87;;
12332;SDS011;6232;48.094;11.288;2023-04-24T08:31:06;1.80;;;1.70;;
12332;SDS011;6232;48.094;11.288;2023-04-24T08:33:51;10.43;;;2.37;;
12332;SDS011;6232;48.094;11.288;2023-04-24T08:36:37;4.50;;;2.17;;
12332;SDS011;6232;48.094;11.288;2023-04-24T08:39:22;7.57;;;2.17;;
12332;SDS011;6232;48.094;11.288;2023-04-24T08:42:08;2.17;;;1.83;;
12332;SDS011;6232;48.094;11.288;2023-04-24T08:44:54;1.83;;;1.73;;
12332;SDS011;6232;48.094;11.288;2023-04-24T08:47:40;1.70;;;1.60;;
12332;SDS011;6232;48.094;11.288;2023-04-24T08:50:26;2.90;;;1.80;;
12332;SDS011;6232;48.094;11.288;2023-04-24T08:53:12;2.07;;;1.87;;
12332;SDS011;6232;48.094;11.288;2023-04-24T08:55:58;1.80;;;1.70;;
12332;SDS011;6232;48.094;11.288;2023-04-24T08:58:43;1.90;;;1.80;;
12332;SDS011;6232;48.094;11.288;2023-04-24T09:01:29;1.47;;;1.37;;
12332;SDS011;6232;48.094;11.288;2023-04-24T09:04:17;2.10;;;1.80;;
12332;SDS011;6232;48.094;11.288;2023-04-24T09:07:05;2.17;;;2.00;;
12332;SDS011;6232;48.094;11.288;2023-04-24T09:09:51;1.80;;;1.70;;
12332;SDS011;6232;48.094;11.288;2023-04-24T09:12:37;2.80;;;1.70;;
12332;SDS011;6232;48.094;11.288;2023-04-24T09:15:22;1.70;;;1.60;;
12332;SDS011;6232;48.094;11.288;2023-04-24T09:18:08;1.63;;;1.53;;
12332;SDS011;6232;48.094;11.288;2023-04-24T09:21:00;1.60;;;1.50;;
12332;SDS011;6232;48.094;11.288;2023-04-24T09:23:47;1.80;;;1.70;;
12332;SDS011;6232;48.094;11.288;2023-04-24T09:26:42;1.70;;;1.60;;
12332;SDS011;6232;48.094;11.288;2023-04-24T09:29:28;4.77;;;1.50;;
12332;SDS011;6232;48.094;11.288;2023-04-24T09:32:20;5.17;;;1.83;;
12332;SDS011;6232;48.094;11.288;2023-04-24T09:35:13;5.33;;;1.43;;
12332;SDS011;6232;48.094;11.288;2023-04-24T09:37:59;5.80;;;1.50;;
12332;SDS011;6232;48.094;11.288;2023-04-24T09:40:45;1.90;;;1.70;;
12332;SDS011;6232;48.094;11.288;2023-04-24T09:43:30;1.70;;;1.60;;
12332;SDS011;6232;48.094;11.288;2023-04-24T09:46:16;1.70;;;1.60;;
12332;SDS011;6232;48.094;11.288;2023-04-24T09:51:34;1.90;;;1.70;;
12332;SDS011;6232;48.094;11.288;2023-04-24T09:54:21;4.27;;;1.87;;
12332;SDS011;6232;48.094;11.288;2023-04-24T09:57:07;3.60;;;1.87;;
12332;SDS011;6232;48.094;11.288;2023-04-24T09:59:53;1.73;;;1.60;;
12332;SDS011;6232;48.094;11.288;2023-04-24T10:02:39;2.27;;;2.00;;
12332;SDS011;6232;48.094;11.288;2023-04-24T10:05:26;1.87;;;1.60;;
12332;SDS011;6232;48.094;11.288;2023-04-24T10:08:12;2.80;;;1.97;;
12332;SDS011;6232;48.094;11.288;2023-04-24T10:10:58;2.43;;;1.70;;
12332;SDS011;6232;48.094;11.288;2023-04-24T10:13:44;2.17;;;2.00;;
12332;SDS011;6232;48.094;11.288;2023-04-24T10:16:30;2.23;;;2.00;;
12332;SDS011;6232;48.094;11.288;2023-04-24T10:19:16;3.03;;;1.67;;
12332;SDS011;6232;48.094;11.288;2023-04-24T10:22:05;1.80;;;1.70;;
12332;SDS011;6232;48.094;11.288;2023-04-24T10:24:51;2.00;;;1.70;;
12332;SDS011;6232;48.094;11.288;2023-04-24T10:27:37;3.17;;;1.50;;
12332;SDS011;6232;48.094;11.288;2023-04-24T10:30:23;2.80;;;1.47;;
12332;SDS011;6232;48.094;11.288;2023-04-24T10:33:08;1.67;;;1.50;;
12332;SDS011;6232;48.094;11.288;2023-04-24T10:35:54;4.50;;;2.23;;
12332;SDS011;6232;48.094;11.288;2023-04-24T10:38:41;3.00;;;1.57;;
12332;SDS011;6232;48.094;11.288;2023-04-24T10:41:27;2.50;;;1.40;;
12332;SDS011;6232;48.094;11.288;2023-04-24T10:44:15;5.00;;;1.80;;
12332;SDS011;6232;48.094;11.288;2023-04-24T10:47:01;4.23;;;2.03;;
12332;SDS011;6232;48.094;11.288;2023-04-24T10:49:46;4.40;;;1.87;;
12332;SDS011;6232;48.094;11.288;2023-04-24T10:52:45;4.73;;;2.00;;
12332;SDS011;6232;48.094;11.288;2023-04-24T10:58:50;4.10;;;1.90;;
12332;SDS011;6232;48.094;11.288;2023-04-24T11:01:37;2.30;;;1.70;;
12332;SDS011;6232;48.094;11.288;2023-04-24T11:04:30;5.00;;;1.47;;
12332;SDS011;6232;48.094;11.288;2023-04-24T11:07:16;1.83;;;1.73;;
12332;SDS011;6232;48.094;11.288;2023-04-24T11:10:02;3.23;;;1.60;;
12332;SDS011;6232;48.094;11.288;2023-04-24T11:12:48;3.37;;;1.20;;
12332;SDS011;6232;48.094;11.288;2023-04-24T11:15:36;1.50;;;1.40;;
12332;SDS011;6232;48.094;11.288;2023-04-24T11:18:21;1.50;;;1.40;;
12332;SDS011;6232;48.094;11.288;2023-04-24T11:21:17;1.50;;;1.40;;
12332;SDS011;6232;48.094;11.288;2023-04-24T11:27:15;3.33;;;1.60;;
12332;SDS011;6232;48.094;11.288;2023-04-24T11:30:02;1.87;;;1.77;;
12332;SDS011;6232;48.094;11.288;2023-04-24T11:32:49;1.97;;;1.67;;
12332;SDS011;6232;48.094;11.288;2023-04-24T11:35:38;1.80;;;1.70;;
12332;SDS011;6232;48.094;11.288;2023-04-24T11:38:24;4.17;;;1.80;;
12332;SDS011;6232;48.094;11.288;2023-04-24T11:41:10;2.10;;;1.90;;
12332;SDS011;6232;48.094;11.288;2023-04-24T11:43:56;2.17;;;1.97;;
12332;SDS011;6232;48.094;11.288;2023-04-24T11:46:42;2.50;;;1.73;;
12332;SDS011;6232;48.094;11.288;2023-04-24T11:49:28;2.80;;;1.60;;
12332;SDS011;6232;48.094;11.288;2023-04-24T11:52:15;1.63;;;1.53;;
12332;SDS011;6232;48.094;11.288;2023-04-24T11:55:00;1.70;;;1.60;;
12332;SDS011;6232;48.094;11.288;2023-04-24T11:57:47;1.90;;;1.73;;
12332;SDS011;6232;48.094;11.288;2023-04-24T12:00:32;2.27;;;1.80;;
12332;SDS011;6232;48.094;11.288;2023-04-24T12:03:19;2.60;;;1.83;;
12332;SDS011;6232;48.094;11.288;2023-04-24T12:06:06;1.40;;;1.30;;
12332;SDS011;6232;48.094;11.288;2023-04-24T12:08:54;2.10;;;1.90;;
12332;SDS011;6232;48.094;11.288;2023-04-24T12:11:52;1.93;;;1.83;;
12332;SDS011;6232;48.094;11.288;2023-04-24T12:14:47;4.53;;;1.80;;
12332;SDS011;6232;48.094;11.288;2023-04-24T12:17:33;2.43;;;1.50;;
12332;SDS011;6232;48.094;11.288;2023-04-24T12:20:29;3.27;;;1.70;;
12332;SDS011;6232;48.094;11.288;2023-04-24T12:23:15;2.20;;;1.90;;
12332;SDS011;6232;48.094;11.288;2023-04-24T12:26:03;2.57;;;1.70;;
12332;SDS011;6232;48.094;11.288;2023-04-24T12:28:49;1.83;;;1.67;;
12332;SDS011;6232;48.094;11.288;2023-04-24T12:31:35;2.23;;;1.70;;
12332;SDS011;6232;48.094;11.288;2023-04-24T12:34:21;3.03;;;1.50;;
12332;SDS011;6232;48.094;11.288;2023-04-24T12:37:10;1.70;;;1.60;;
12332;SDS011;6232;48.094;11.288;2023-04-24T12:42:46;1.40;;;1.30;;
12332;SDS011;6232;48.094;11.288;2023-04-24T12:45:32;1.83;;;1.60;;
12332;SDS011;6232;48.094;11.288;2023-04-24T12:48:18;2.20;;;1.67;;
12332;SDS011;6232;48.094;11.288;2023-04-24T12:51:03;4.17;;;1.67;;
12332;SDS011;6232;48.094;11.288;2023-04-24T12:53:49;1.40;;;1.30;;
12332;SDS011;6232;48.094;11.288;2023-04-24T12:56:34;2.47;;;1.73;;
12332;SDS011;6232;48.094;11.288;2023-04-24T12:59:24;1.63;;;1.53;;
12332;SDS011;6232;48.094;11.288;2023-04-24T13:02:10;1.67;;;1.57;;
12332;SDS011;6232;48.094;11.288;2023-04-24T13:04:56;3.03;;;1.40;;
12332;SDS011;6232;48.094;11.288;2023-04-24T13:07:42;3.00;;;1.50;;
12332;SDS011;6232;48.094;11.288;2023-04-24T13:10:28;1.73;;;1.63;;
12332;SDS011;6232;48.094;11.288;2023-04-24T13:13:13;2.00;;;1.80;;
12332;SDS011;6232;48.094;11.288;2023-04-24T13:15:59;1.87;;;1.77;;
12332;SDS011;6232;48.094;11.288;2023-04-24T13:18:45;2.47;;;2.27;;
12332;SDS011;6232;48.094;11.288;2023-04-24T13:21:30;2.47;;;1.87;;
12332;SDS011;6232;48.094;11.288;2023-04-24T13:24:16;2.60;;;1.93;;
12332;SDS011;6232;48.094;11.288;2023-04-24T13:27:02;2.30;;;2.10;;
12332;SDS011;6232;48.094;11.288;2023-04-24T13:29:48;4.67;;;2.10;;
12332;SDS011;6232;48.094;11.288;2023-04-24T13:32:34;1.50;;;1.40;;
12332;SDS011;6232;48.094;11.288;2023-04-24T13:35:20;1.87;;;1.70;;
12332;SDS011;6232;48.094;11.288;2023-04-24T13:38:06;6.20;;;1.70;;
12332;SDS011;6232;48.094;11.288;2023-04-24T13:40:51;1.87;;;1.40;;
12332;SDS011;6232;48.094;11.288;2023-04-24T13:43:37;1.80;;;1.50;;
12332;SDS011;6232;48.094;11.288;2023-04-24T13:46:23;6.80;;;1.63;;
12332;SDS011;6232;48.094;11.288;2023-04-24T13:49:08;4.33;;;1.40;;
12332;SDS011;6232;48.094;11.288;2023-04-24T13:51:54;1.57;;;1.37;;
12332;SDS011;6232;48.094;11.288;2023-04-24T13:54:40;5.07;;;1.80;;
12332;SDS011;6232;48.094;11.288;2023-04-24T13:57:26;4.17;;;2.37;;
12332;SDS011;6232;48.094;11.288;2023-04-24T14:00:12;3.83;;;2.17;;
12332;SDS011;6232;48.094;11.288;2023-04-24T14:02:58;5.70;;;1.60;;
12332;SDS011;6232;48.094;11.288;2023-04-24T14:05:44;2.73;;;1.80;;
12332;SDS011;6232;48.094;11.288;2023-04-24T14:08:29;2.90;;;1.93;;
12332;SDS011;6232;48.094;11.288;2023-04-24T14:11:15;4.37;;;1.80;;
12332;SDS011;6232;48.094;11.288;2023-04-24T14:14:01;6.10;;;1.57;;
12332;SDS011;6232;48.094;11.288;2023-04-24T14:16:46;1.50;;;1.40;;
12332;SDS011;6232;48.094;11.288;2023-04-24T14:19:32;6.00;;;1.73;;
12332;SDS011;6232;48.094;11.288;2023-04-24T14:22:17;2.20;;;2.00;;
12332;SDS011;6232;48.094;11.288;2023-04-24T14:25:03;4.07;;;1.43;;
12332;SDS011;6232;48.094;11.288;2023-04-24T14:27:49;4.87;;;1.93;;
12332;SDS011;6232;48.094;11.288;2023-04-24T14:30:35;3.50;;;1.90;;
12332;SDS011;6232;48.094;11.288;2023-04-24T14:33:22;1.40;;;1.30;;
12332;SDS011;6232;48.094;11.288;2023-04-24T14:36:08;2.07;;;1.83;;
12332;SDS011;6232;48.094;11.288;2023-04-24T14:38:53;4.33;;;2.40;;
12332;SDS011;6232;48.094;11.288;2023-04-24T14:41:39;2.00;;;1.90;;
12332;SDS011;6232;48.094;11.288;2023-04-24T14:44:25;5.30;;;2.00;;
12332;SDS011;6232;48.094;11.288;2023-04-24T14:47:11;2.47;;;1.50;;
12332;SDS011;6232;48.094;11.288;2023-04-24T14:49:57;5.17;;;2.07;;
12332;SDS011;6232;48.094;11.288;2023-04-24T14:52:43;2.10;;;1.63;;
12332;SDS011;6232;48.094;11.288;2023-04-24T14:55:29;4.50;;;1.57;;
12332;SDS011;6232;48.094;11.288;2023-04-24T14:58:14;1.87;;;1.63;;
12332;SDS011;6232;48.094;11.288;2023-04-24T15:01:00;2.20;;;1.70;;
12332;SDS011;6232;48.094;11.288;2023-04-24T15:03:45;9.70;;;1.73;;
12332;SDS011;6232;48.094;11.288;2023-04-24T15:06:31;1.87;;;1.67;;
12332;SDS011;6232;48.094;11.288;2023-04-24T15:09:17;2.30;;;1.67;;
12332;SDS011;6232;48.094;11.288;2023-04-24T15:12:02;4.07;;;2.40;;
12332;SDS011;6232;48.094;11.288;2023-04-24T15:14:48;5.73;;;1.83;;
12332;SDS011;6232;48.094;11.288;2023-04-24T15:17:33;3.60;;;1.90;;
12332;SDS011;6232;48.094;11.288;2023-04-24T15:20:19;5.33;;;1.80;;
12332;SDS011;6232;48.094;11.288;2023-04-24T15:23:05;2.97;;;1.83;;
12332;SDS011;6232;48.094;11.288;2023-04-24T15:25:51;1.80;;;1.47;;
12332;SDS011;6232;48.094;11.288;2023-04-24T15:28:36;2.60;;;1.60;;
12332;SDS011;6232;48.094;11.288;2023-04-24T15:31:22;2.93;;;1.90;;
12332;SDS011;6232;48.094;11.288;2023-04-24T15:34:08;2.63;;;1.60;;
12332;SDS011;6232;48.094;11.288;2023-04-24T15:36:54;4.33;;;1.93;;
12332;SDS011;6232;48.094;11.288;2023-04-24T15:39:39;3.50;;;1.90;;
12332;SDS011;6232;48.094;11.288;2023-04-24T15:42:26;4.20;;;1.60;;
12332;SDS011;6232;48.094;11.288;2023-04-24T15:45:11;2.30;;;2.07;;
12332;SDS011;6232;48.094;11.288;2023-04-24T15:47:57;1.73;;;1.63;;
12332;SDS011;6232;48.094;11.288;2023-04-24T15:50:42;1.70;;;1.60;;
12332;SDS011;6232;48.094;11.288;2023-04-24T15:53:28;2.50;;;1.77;;
12332;SDS011;6232;48.094;11.288;2023-04-24T15:56:13;2.63;;;1.63;;
12332;SDS011;6232;48.094;11.288;2023-04-24T15:58:59;1.60;;;1.50;;
12332;SDS011;6232;48.094;11.288;2023-04-24T16:01:45;2.10;;;1.83;;
12332;SDS011;6232;48.094;11.288;2023-04-24T16:04:30;1.93;;;1.83;;
12332;SDS011;6232;48.094;11.288;2023-04-24T16:07:16;2.07;;;1.50;;
12332;SDS011;6232;48.094;11.288;2023-04-24T16:10:04;2.70;;;1.97;;
12332;SDS011;6232;48.094;11.288;2023-04-24T16:12:50;1.60;;;1.50;;
12332;SDS011;6232;48.094;11.288;2023-04-24T16:15:37;1.33;;;1.23;;
12332;SDS011;6232;48.094;11.288;2023-04-24T16:18:23;1.60;;;1.50;;
12332;SDS011;6232;48.094;11.288;2023-04-24T16:21:08;1.90;;;1.50;;
12332;SDS011;6232;48.094;11.288;2023-04-24T16:23:54;2.00;;;1.90;;
12332;SDS011;6232;48.094;11.288;2023-04-24T16:26:40;2.93;;;1.80;;
12332;SDS011;6232;48.094;11.288;2023-04-24T16:29:26;2.13;;;1.93;;
12332;SDS011;6232;48.094;11.288;2023-04-24T16:32:11;2.67;;;2.10;;
12332;SDS011;6232;48.094;11.288;2023-04-24T16:34:57;1.50;;;1.40;;
12332;SDS011;6232;48.094;11.288;2023-04-24T16:37:42;2.17;;;1.70;;
12332;SDS011;6232;48.094;11.288;2023-04-24T16:40:28;2.83;;;1.70;;
12332;SDS011;6232;48.094;11.288;2023-04-24T16:43:14;1.90;;;1.60;;
12332;SDS011;6232;48.094;11.288;2023-04-24T16:45:59;1.70;;;1.60;;
12332;SDS011;6232;48.094;11.288;2023-04-24T16:48:45;3.37;;;1.90;;
12332;SDS011;6232;48.094;11.288;2023-04-24T16:51:31;2.40;;;1.50;;
12332;SDS011;6232;48.094;11.288;2023-04-24T16:54:18;2.13;;;1.60;;